TimeHST,TemperatureF,Dew PointF,Humidity,Sea Level PressureIn,VisibilityMPH,Wind Direction,Wind SpeedMPH,Gust SpeedMPH,PrecipitationIn,Events,Conditions,WindDirDegrees,DateUTC
12:53 AM,77.0,66.9,71,30.01,10.0,ESE,3.5,-,N/A,,Clear,120,2011-11-03 10:53:00
1:53 AM,75.9,66.0,71,29.99,10.0,ESE,5.8,-,N/A,,Clear,120,2011-11-03 11:53:00
2:53 AM,75.9,66.0,71,29.99,10.0,East,6.9,-,N/A,,Clear,100,2011-11-03 12:53:00
3:53 AM,75.9,66.0,71,29.99,10.0,East,4.6,-,N/A,,Partly Cloudy,80,2011-11-03 13:53:00
4:53 AM,75.9,64.0,67,29.99,10.0,SE,8.1,-,N/A,,Partly Cloudy,140,2011-11-03 14:53:00
5:53 AM,75.9,64.0,67,30.01,10.0,ESE,8.1,-,N/A,,Scattered Clouds,110,2011-11-03 15:53:00
6:53 AM,77.0,64.9,66,30.03,10.0,ESE,5.8,-,N/A,,Mostly Cloudy,110,2011-11-03 16:53:00
7:53 AM,80.1,64.0,58,30.04,10.0,SE,5.8,-,N/A,,Clear,130,2011-11-03 17:53:00
8:53 AM,80.1,68.0,67,30.05,10.0,SSW,6.9,-,N/A,,Scattered Clouds,200,2011-11-03 18:53:00
9:53 AM,82.0,68.0,62,30.05,10.0,SW,5.8,-,N/A,,Clear,220,2011-11-03 19:53:00
10:53 AM,82.9,69.1,63,30.03,10.0,SSW,10.4,-,N/A,,Clear,200,2011-11-03 20:53:00
11:53 AM,84.0,70.0,63,30.01,10.0,SW,10.4,-,N/A,,Clear,220,2011-11-03 21:53:00
12:53 PM,84.0,69.1,61,29.99,10.0,WSW,10.4,-,N/A,,Scattered Clouds,240,2011-11-03 22:53:00
1:53 PM,84.0,66.9,56,29.96,10.0,South,9.2,-,N/A,,Scattered Clouds,190,2011-11-03 23:53:00
2:53 PM,82.9,66.9,58,29.95,10.0,SW,9.2,-,N/A,,Scattered Clouds,220,2011-11-04 00:53:00
3:53 PM,82.0,68.0,62,29.95,10.0,SSW,9.2,-,N/A,,Overcast,200,2011-11-04 01:53:00
4:53 PM,82.0,69.1,65,29.95,10.0,SSW,9.2,-,N/A,,Scattered Clouds,200,2011-11-04 02:53:00
5:53 PM,80.1,69.1,69,29.99,10.0,SSW,6.9,-,N/A,,Overcast,210,2011-11-04 03:53:00
6:53 PM,80.1,69.1,69,30.00,10.0,WSW,5.8,-,N/A,,Overcast,250,2011-11-04 04:53:00
7:43 PM,78.8,68.0,69,30.02,6.0,ESE,10.4,-,0.00,Rain-Thunderstorm,Heavy Thunderstorms and Rain,120,2011-11-04 05:43:00
7:53 PM,77.0,69.1,76,30.02,10.0,East,11.5,-,N/A,Rain-Thunderstorm,Light Thunderstorms and Rain,100,2011-11-04 05:53:00
8:51 PM,75.2,69.8,83,30.03,10.0,East,6.9,-,N/A,,Clear,80,2011-11-04 06:51:00
8:53 PM,75.9,70.0,82,30.04,10.0,East,6.9,-,N/A,,Clear,80,2011-11-04 06:53:00
9:53 PM,77.0,70.0,79,30.04,10.0,East,6.9,-,N/A,,Scattered Clouds,100,2011-11-04 07:53:00
10:53 PM,75.9,70.0,82,30.04,10.0,East,4.6,-,N/A,,Overcast,90,2011-11-04 08:53:00
11:53 PM,77.0,69.1,76,30.02,10.0,SE,3.5,-,N/A,,Mostly Cloudy,130,2011-11-04 09:53:00